Time;durP1;ratioP1;P1;durP2;ratioP2;P2;SDS_P1;SDS_P2;PMS_P1;PMS_P2;Temp;Humidity;BMP_temperature;BMP_pressure;BME280_temperature;BME280_humidity;BME280_pressure;Samples;Min_cycle;Max_cycle;Signal;HPM_P1;HPM_P2
2022/08/23 00:02:25;;;;;;;;;;;27.70;79.70;;;;;;5017000;28;19929;-62
2022/08/23 00:04:53;;;;;;;;;;;27.70;79.70;;;;;;5015178;28;19936;-62
2022/08/23 00:07:37;;;;;;;;;;;27.70;79.70;;;;;;5020891;28;20340;-62
2022/08/23 00:10:06;;;;;;;;;;;27.70;79.70;;;;;;5012209;28;19933;-64
2022/08/23 00:12:34;;;;;;;;;;;27.70;79.70;;;;;;5003729;28;20355;-61
2022/08/23 00:15:01;;;;;;;;;;;27.70;79.70;;;;;;5022239;28;19929;-62
2022/08/23 00:17:28;;;;;;;;;;;27.70;79.70;;;;;;5012059;28;19940;-64
2022/08/23 00:20:05;;;;;;;;;;;27.70;80.30;;;;;;5012074;28;19936;-62
2022/08/23 00:22:33;;;;;;;;;;;27.70;79.70;;;;;;5014255;28;19926;-58
2022/08/23 00:25:00;;;;;;;;;;;27.70;79.70;;;;;;5015018;28;19932;-63
2022/08/23 00:27:27;;;;;;;;;;;27.60;79.60;;;;;;5010965;28;20393;-62
2022/08/23 00:29:55;;;;;;;;;;;27.70;79.70;;;;;;5007070;28;19937;-62
2022/08/23 00:32:22;;;;;;;;;;;27.70;79.70;;;;;;5006743;28;19930;-61
2022/08/23 00:34:49;;;;;;;;;;;27.70;79.70;;;;;;5019093;28;19930;-63
2022/08/23 00:37:16;;;;;;;;;;;27.70;79.70;;;;;;5010547;28;20035;-63
2022/08/23 00:39:44;;;;;;;;;;;27.60;80.30;;;;;;5024207;28;20389;-61
2022/08/23 00:48:01;;;;;;;;;;;27.60;79.70;;;;;;5008736;28;20200;-60
2022/08/23 00:50:35;;;;;;;;;;;27.60;79.70;;;;;;5005763;28;19936;-61
2022/08/23 00:53:11;;;;;;;;;;;27.60;79.70;;;;;;5015197;28;20451;-60
2022/08/23 00:55:41;;;;;;;;;;;27.60;79.70;;;;;;5020722;28;19926;-60
2022/08/23 00:58:08;;;;;;;;;;;27.60;79.70;;;;;;5016187;28;20389;-62
2022/08/23 01:00:36;;;;;;;;;;;27.60;79.70;;;;;;5009877;28;19932;-62
2022/08/23 01:03:06;;;;;;;;;;;27.60;79.70;;;;;;5007549;28;19925;-62
2022/08/23 01:05:40;;;;;;;;;;;27.60;79.70;;;;;;5008751;28;19998;-62
2022/08/23 01:08:07;;;;;;;;;;;27.60;79.70;;;;;;5013109;28;20327;-63
2022/08/23 01:10:46;;;;;;;;;;;27.60;79.70;;;;;;5011458;28;19937;-63
2022/08/23 01:13:15;;;;;;;;;;;27.60;79.70;;;;;;5014285;28;20316;-61
2022/08/23 01:15:54;;;;;;;;;;;27.60;79.70;;;;;;5008378;28;19937;-63
2022/08/23 01:18:24;;;;;;;;;;;27.60;79.70;;;;;;5003443;28;19930;-62
2022/08/23 01:21:12;;;;;;;;;;;27.60;79.70;;;;;;5027442;28;19936;-60
2022/08/23 01:23:39;;;;;;;;;;;27.60;79.70;;;;;;5010755;28;19925;-61
2022/08/23 01:26:07;;;;;;;;;;;27.60;79.70;;;;;;5013202;28;19944;-62
2022/08/23 01:28:38;;;;;;;;;;;27.60;79.70;;;;;;4997871;28;19929;-61
2022/08/23 01:31:06;;;;;;;;;;;27.60;79.70;;;;;;5020376;28;19934;-61
2022/08/23 01:33:34;;;;;;;;;;;27.60;79.70;;;;;;5020850;28;19955;-64
2022/08/23 01:36:01;;;;;;;;;;;27.60;79.70;;;;;;5021286;28;19930;-62
2022/08/23 01:38:31;;;;;;;;;;;27.60;79.80;;;;;;5021186;28;19929;-62
2022/08/23 01:41:00;;;;;;;;;;;27.60;79.80;;;;;;5022168;28;19953;-62
2022/08/23 01:43:27;;;;;;;;;;;27.50;79.70;;;;;;5029732;28;20015;-62
2022/08/23 01:45:55;;;;;;;;;;;27.50;79.70;;;;;;5019355;28;19933;-64
2022/08/23 01:48:24;;;;;;;;;;;27.60;79.80;;;;;;5007432;28;19941;-64
2022/08/23 01:50:51;;;;;;;;;;;27.60;79.80;;;;;;5016403;28;19934;-64
2022/08/23 01:53:18;;;;;;;;;;;27.50;79.70;;;;;;5026323;28;19925;-64
2022/08/23 01:55:48;;;;;;;;;;;27.60;79.80;;;;;;5017626;28;19925;-62
2022/08/23 01:58:18;;;;;;;;;;;27.50;80.00;;;;;;5018868;28;19925;-61
2022/08/23 02:00:45;;;;;;;;;;;27.50;79.70;;;;;;5011523;28;20320;-63
2022/08/23 02:03:12;;;;;;;;;;;27.50;79.70;;;;;;5013532;28;19929;-62
2022/08/23 02:05:41;;;;;;;;;;;27.50;79.70;;;;;;5013097;28;19928;-61
2022/08/23 02:10:58;;;;;;;;;;;27.50;79.70;;;;;;5003044;28;20408;-61
2022/08/23 02:13:26;;;;;;;;;;;27.50;79.70;;;;;;5017801;28;19934;-63
2022/08/23 02:15:56;;;;;;;;;;;27.50;79.80;;;;;;5010753;28;20401;-64
2022/08/23 02:18:24;;;;;;;;;;;27.50;79.70;;;;;;5014547;28;19925;-62
2022/08/23 02:20:52;;;;;;;;;;;27.50;79.80;;;;;;5011087;28;19932;-63
2022/08/23 02:23:20;;;;;;;;;;;27.50;79.80;;;;;;5010485;28;19925;-61
2022/08/23 02:25:50;;;;;;;;;;;27.50;79.80;;;;;;5019122;28;19925;-64
2022/08/23 02:28:22;;;;;;;;;;;27.50;79.80;;;;;;5015267;28;19930;-62
2022/08/23 02:30:52;;;;;;;;;;;27.50;79.80;;;;;;4997461;28;20399;-62
2022/08/23 02:33:20;;;;;;;;;;;27.50;79.80;;;;;;5009597;28;19936;-67
2022/08/23 02:35:47;;;;;;;;;;;27.50;79.80;;;;;;5003377;28;20388;-62
2022/08/23 02:38:17;;;;;;;;;;;27.50;79.80;;;;;;5018805;28;19933;-64
2022/08/23 02:40:44;;;;;;;;;;;27.50;79.80;;;;;;5014692;28;19933;-60
2022/08/23 02:43:12;;;;;;;;;;;27.50;79.80;;;;;;5014256;28;19930;-62
2022/08/23 02:45:39;;;;;;;;;;;27.40;79.70;;;;;;5009382;28;19932;-60
2022/08/23 02:48:07;;;;;;;;;;;27.40;79.70;;;;;;5017299;28;19936;-62
2022/08/23 02:50:45;;;;;;;;;;;27.40;79.70;;;;;;5009535;28;19932;-62
2022/08/23 02:53:12;;;;;;;;;;;27.50;79.80;;;;;;5013631;28;19937;-63
2022/08/23 02:55:43;;;;;;;;;;;27.40;79.70;;;;;;5016103;28;19952;-63
2022/08/23 02:58:10;;;;;;;;;;;27.40;79.70;;;;;;5015338;28;19929;-61
2022/08/23 03:00:38;;;;;;;;;;;27.40;79.80;;;;;;5012739;28;19925;-62
2022/08/23 03:03:06;;;;;;;;;;;27.40;79.70;;;;;;5017698;28;19933;-60
2022/08/23 03:05:33;;;;;;;;;;;27.40;79.70;;;;;;5009019;28;20316;-62
2022/08/23 03:08:00;;;;;;;;;;;27.40;79.70;;;;;;5009499;28;20413;-63
2022/08/23 03:10:33;;;;;;;;;;;27.40;79.80;;;;;;5014402;28;19937;-63
2022/08/23 03:13:01;;;;;;;;;;;27.40;79.80;;;;;;5023757;28;19944;-63
2022/08/23 03:15:29;;;;;;;;;;;27.40;79.80;;;;;;5012130;28;19929;-63
2022/08/23 03:17:56;;;;;;;;;;;27.40;79.80;;;;;;5007275;28;19936;-62
2022/08/23 03:20:23;;;;;;;;;;;27.40;79.80;;;;;;5018271;28;20397;-62
2022/08/23 03:22:51;;;;;;;;;;;27.40;79.80;;;;;;5007598;28;19929;-61
2022/08/23 03:25:21;;;;;;;;;;;27.40;79.80;;;;;;5016206;28;20290;-62
2022/08/23 03:28:27;;;;;;;;;;;27.40;79.80;;;;;;5006654;28;19925;-60
2022/08/23 03:30:55;;;;;;;;;;;27.40;79.90;;;;;;5005146;28;19926;-59
2022/08/23 03:33:22;;;;;;;;;;;27.40;79.90;;;;;;5006211;28;19952;-60
2022/08/23 03:35:49;;;;;;;;;;;27.40;79.90;;;;;;5015047;28;20337;-61
2022/08/23 03:38:18;;;;;;;;;;;27.40;79.90;;;;;;5013010;28;19941;-63
2022/08/23 03:40:46;;;;;;;;;;;27.40;79.90;;;;;;5008132;28;19934;-61
2022/08/23 03:43:15;;;;;;;;;;;27.40;79.90;;;;;;5013380;28;19936;-63
2022/08/23 03:45:42;;;;;;;;;;;27.40;79.90;;;;;;5003275;28;19956;-62
2022/08/23 03:48:09;;;;;;;;;;;27.30;79.80;;;;;;5005340;28;19964;-62
2022/08/23 03:50:37;;;;;;;;;;;27.40;79.90;;;;;;5013990;28;20777;-61
2022/08/23 03:53:05;;;;;;;;;;;27.40;79.90;;;;;;5008544;28;19930;-62
2022/08/23 03:55:32;;;;;;;;;;;27.30;79.80;;;;;;5010365;28;19937;-62
2022/08/23 03:58:09;;;;;;;;;;;27.40;79.90;;;;;;5010087;28;19926;-61
2022/08/23 04:00:36;;;;;;;;;;;27.30;79.80;;;;;;4994005;28;19933;-64
2022/08/23 04:03:03;;;;;;;;;;;27.30;79.80;;;;;;5010338;28;19926;-63
2022/08/23 04:05:38;;;;;;;;;;;27.30;79.90;;;;;;5014460;28;19926;-63
2022/08/23 04:08:12;;;;;;;;;;;27.30;79.80;;;;;;5007449;28;19929;-63
2022/08/23 04:10:42;;;;;;;;;;;27.30;79.80;;;;;;4997102;28;19948;-62
2022/08/23 04:13:10;;;;;;;;;;;27.30;79.80;;;;;;5008381;28;19933;-60
2022/08/23 04:15:37;;;;;;;;;;;27.30;79.80;;;;;;5016663;28;19933;-61
2022/08/23 04:18:06;;;;;;;;;;;27.30;79.90;;;;;;5020743;28;19954;-61
2022/08/23 04:20:35;;;;;;;;;;;27.30;79.90;;;;;;5003297;28;20301;-61
2022/08/23 04:23:04;;;;;;;;;;;27.30;79.90;;;;;;4996038;28;19929;-61
2022/08/23 04:25:43;;;;;;;;;;;27.30;79.90;;;;;;5007607;28;20181;-63
2022/08/23 04:28:10;;;;;;;;;;;27.30;79.90;;;;;;5010881;28;19945;-60
2022/08/23 04:30:38;;;;;;;;;;;27.30;79.90;;;;;;5010190;28;19925;-60
2022/08/23 04:33:06;;;;;;;;;;;27.30;79.90;;;;;;5015511;28;19929;-62
2022/08/23 04:35:37;;;;;;;;;;;27.30;79.90;;;;;;5014898;28;19940;-64
2022/08/23 04:38:05;;;;;;;;;;;27.30;79.90;;;;;;5022781;28;20358;-62
2022/08/23 04:43:42;;;;;;;;;;;27.30;79.90;;;;;;5005044;28;19929;-58
2022/08/23 04:46:15;;;;;;;;;;;27.30;79.90;;;;;;5014602;28;20035;-62
2022/08/23 04:48:45;;;;;;;;;;;27.30;79.90;;;;;;5016310;28;19932;-61
2022/08/23 04:51:13;;;;;;;;;;;27.30;79.90;;;;;;5009177;28;19929;-63
2022/08/23 04:53:40;;;;;;;;;;;27.30;79.90;;;;;;5010808;28;20001;-62
2022/08/23 04:56:33;;;;;;;;;;;27.30;80.00;;;;;;5007974;28;19929;-59
2022/08/23 04:59:02;;;;;;;;;;;27.30;79.90;;;;;;5012913;28;19929;-62
2022/08/23 05:01:30;;;;;;;;;;;27.30;79.90;;;;;;5009342;28;19936;-60
2022/08/23 05:03:59;;;;;;;;;;;27.30;79.90;;;;;;5005820;28;20733;-59
2022/08/23 05:06:27;;;;;;;;;;;27.30;79.90;;;;;;5013441;28;19933;-60
2022/08/23 05:08:54;;;;;;;;;;;27.30;79.90;;;;;;5023974;28;19936;-61
2022/08/23 05:11:23;;;;;;;;;;;27.30;79.90;;;;;;5012925;28;19930;-62
2022/08/23 05:13:50;;;;;;;;;;;27.30;79.90;;;;;;5011690;28;19932;-65
2022/08/23 05:16:19;;;;;;;;;;;27.20;79.90;;;;;;5024395;28;20420;-61
2022/08/23 05:18:56;;;;;;;;;;;27.30;80.00;;;;;;5018185;28;19925;-61
2022/08/23 05:21:24;;;;;;;;;;;27.30;79.90;;;;;;5003082;28;19930;-59
2022/08/23 05:23:51;;;;;;;;;;;27.20;79.90;;;;;;5021556;28;19929;-58
2022/08/23 05:26:23;;;;;;;;;;;27.30;80.00;;;;;;5016862;28;19926;-59
2022/08/23 05:28:50;;;;;;;;;;;27.20;79.90;;;;;;5016016;28;19929;-57
2022/08/23 05:31:23;;;;;;;;;;;27.20;79.90;;;;;;5019392;28;19936;-59
2022/08/23 05:33:57;;;;;;;;;;;27.30;80.00;;;;;;5004434;28;20313;-60
2022/08/23 05:36:41;;;;;;;;;;;27.30;79.90;;;;;;5010311;28;19930;-57
2022/08/23 05:39:22;;;;;;;;;;;27.20;79.90;;;;;;5013342;28;20305;-57
2022/08/23 05:42:02;;;;;;;;;;;27.20;79.90;;;;;;5012998;28;19929;-59
2022/08/23 05:44:29;;;;;;;;;;;27.30;79.90;;;;;;5010703;28;19926;-61
2022/08/23 05:47:06;;;;;;;;;;;27.20;79.90;;;;;;5008751;28;19929;-58
2022/08/23 05:49:47;;;;;;;;;;;27.30;79.90;;;;;;5023218;28;20316;-59
2022/08/23 05:52:15;;;;;;;;;;;27.20;79.80;;;;;;5012787;28;19925;-58
2022/08/23 05:54:43;;;;;;;;;;;27.30;79.90;;;;;;5009681;28;19935;-59
2022/08/23 05:57:30;;;;;;;;;;;27.30;79.90;;;;;;5004497;28;19937;-59
2022/08/23 05:59:58;;;;;;;;;;;27.30;79.90;;;;;;5021242;28;19934;-60
2022/08/23 06:02:25;;;;;;;;;;;27.30;79.80;;;;;;5002919;28;19934;-58
2022/08/23 06:04:53;;;;;;;;;;;27.30;79.80;;;;;;5014763;28;19925;-59
2022/08/23 06:07:23;;;;;;;;;;;27.30;79.80;;;;;;5007994;28;19948;-60
2022/08/23 06:09:51;;;;;;;;;;;27.30;79.80;;;;;;5008636;28;19936;-59
2022/08/23 06:12:18;;;;;;;;;;;27.30;79.90;;;;;;5014826;28;19937;-56
2022/08/23 06:14:45;;;;;;;;;;;27.20;79.80;;;;;;5011191;28;19936;-57
2022/08/23 06:17:13;;;;;;;;;;;27.30;79.90;;;;;;4993023;28;19937;-58
2022/08/23 06:19:40;;;;;;;;;;;27.30;79.80;;;;;;5014048;28;19936;-58
2022/08/23 06:22:18;;;;;;;;;;;27.30;79.80;;;;;;5013334;28;19933;-59
2022/08/23 06:24:47;;;;;;;;;;;27.30;79.80;;;;;;5014462;28;19936;-58
2022/08/23 06:27:15;;;;;;;;;;;27.30;79.90;;;;;;5009568;28;19925;-57
2022/08/23 06:29:42;;;;;;;;;;;27.30;79.90;;;;;;5018255;28;19936;-62
2022/08/23 06:32:28;;;;;;;;;;;27.20;79.80;;;;;;5012261;28;19941;-60
2022/08/23 06:35:15;;;;;;;;;;;27.30;79.90;;;;;;5012899;28;20062;-58
2022/08/23 06:38:07;;;;;;;;;;;27.30;79.90;;;;;;5004558;28;19936;-60
2022/08/23 06:41:00;;;;;;;;;;;27.20;79.80;;;;;;5012853;28;19925;-60
2022/08/23 06:43:38;;;;;;;;;;;27.30;80.50;;;;;;5025978;28;19966;-58
2022/08/23 06:46:27;;;;;;;;;;;27.30;79.90;;;;;;5009676;28;19960;-61
2022/08/23 06:48:57;;;;;;;;;;;27.30;79.90;;;;;;5027819;28;19930;-58
2022/08/23 06:51:27;;;;;;;;;;;27.30;79.90;;;;;;5023731;28;19952;-60
2022/08/23 06:54:23;;;;;;;;;;;27.30;80.50;;;;;;5029682;28;19929;-60
2022/08/23 06:57:13;;;;;;;;;;;27.30;80.00;;;;;;5024333;28;19937;-62
2022/08/23 06:59:53;;;;;;;;;;;27.30;80.00;;;;;;5017826;28;19932;-60
2022/08/23 07:02:44;;;;;;;;;;;27.30;80.00;;;;;;5018708;28;19929;-62
2022/08/23 07:05:34;;;;;;;;;;;27.30;80.00;;;;;;5010789;28;19936;-61
2022/08/23 07:08:08;;;;;;;;;;;27.30;80.00;;;;;;5012876;28;20404;-58
2022/08/23 07:10:35;;;;;;;;;;;27.30;80.00;;;;;;5011051;28;19933;-57
2022/08/23 07:13:02;;;;;;;;;;;27.30;80.10;;;;;;5009303;28;19930;-62
2022/08/23 07:15:30;;;;;;;;;;;27.30;80.00;;;;;;5008733;28;19925;-60
2022/08/23 07:17:57;;;;;;;;;;;27.30;80.10;;;;;;5019623;28;19940;-61
2022/08/23 07:20:25;;;;;;;;;;;27.30;80.10;;;;;;5007179;28;19937;-56
2022/08/23 07:22:52;;;;;;;;;;;27.30;80.10;;;;;;5004717;28;20088;-61
2022/08/23 07:25:21;;;;;;;;;;;27.30;80.10;;;;;;5002096;28;20424;-61
2022/08/23 07:27:54;;;;;;;;;;;27.30;80.10;;;;;;5026021;28;19944;-62
2022/08/23 07:30:21;;;;;;;;;;;27.30;80.10;;;;;;5018171;28;19933;-59
2022/08/23 07:32:50;;;;;;;;;;;27.30;80.10;;;;;;5028829;28;19926;-63
2022/08/23 07:35:21;;;;;;;;;;;27.40;80.20;;;;;;5014640;28;19925;-62
2022/08/23 07:37:51;;;;;;;;;;;27.40;80.20;;;;;;5034287;28;19929;-62
2022/08/23 07:40:20;;;;;;;;;;;27.40;80.20;;;;;;5010386;28;19936;-62
2022/08/23 07:42:55;;;;;;;;;;;27.40;80.20;;;;;;5021827;28;19932;-61
2022/08/23 07:45:24;;;;;;;;;;;27.40;80.20;;;;;;5024483;28;19932;-61
2022/08/23 07:47:55;;;;;;;;;;;27.40;80.20;;;;;;5021938;28;19928;-60
2022/08/23 07:50:25;;;;;;;;;;;27.40;80.20;;;;;;5020087;28;20005;-61
2022/08/23 07:53:01;;;;;;;;;;;27.40;80.20;;;;;;5007734;28;19936;-58
2022/08/23 07:55:29;;;;;;;;;;;27.40;80.20;;;;;;5016786;28;19932;-59
2022/08/23 07:58:18;;;;;;;;;;;27.40;80.20;;;;;;5032470;28;19929;-59
2022/08/23 08:00:52;;;;;;;;;;;27.50;80.30;;;;;;5010761;28;19937;-59
2022/08/23 08:03:42;;;;;;;;;;;27.40;80.20;;;;;;5011868;28;19936;-59
2022/08/23 08:06:20;;;;;;;;;;;27.50;80.30;;;;;;5012367;28;19929;-61
2022/08/23 08:08:48;;;;;;;;;;;27.50;80.30;;;;;;5014688;28;19936;-61
2022/08/23 08:11:17;;;;;;;;;;;27.50;80.30;;;;;;5019870;28;19932;-61
2022/08/23 08:13:45;;;;;;;;;;;27.50;80.30;;;;;;5003326;28;19953;-58
2022/08/23 08:16:22;;;;;;;;;;;27.50;80.30;;;;;;5017006;28;20402;-61
2022/08/23 08:18:51;;;;;;;;;;;27.50;80.30;;;;;;5007955;28;19933;-59
2022/08/23 08:21:38;;;;;;;;;;;27.50;80.30;;;;;;5010900;28;20420;-62
2022/08/23 08:24:28;;;;;;;;;;;27.50;80.30;;;;;;5008937;28;19933;-59
2022/08/23 08:27:07;;;;;;;;;;;27.50;80.30;;;;;;5004950;28;19929;-60
2022/08/23 08:29:34;;;;;;;;;;;27.50;80.30;;;;;;4989150;28;19948;-61
2022/08/23 08:32:02;;;;;;;;;;;27.50;80.30;;;;;;5009680;28;20392;-57
2022/08/23 08:34:29;;;;;;;;;;;27.50;80.30;;;;;;4997169;28;19932;-59
2022/08/23 08:36:57;;;;;;;;;;;27.60;80.40;;;;;;4999337;28;19969;-58
2022/08/23 08:39:29;;;;;;;;;;;27.50;80.40;;;;;;5007199;28;19930;-56
2022/08/23 08:42:04;;;;;;;;;;;27.60;80.40;;;;;;5008916;28;19929;-60
2022/08/23 08:44:52;;;;;;;;;;;27.60;80.40;;;;;;5006844;28;19936;-57
2022/08/23 08:47:29;;;;;;;;;;;27.50;80.30;;;;;;5004026;28;19933;-60
2022/08/23 08:50:16;;;;;;;;;;;27.60;80.40;;;;;;5000778;28;20312;-59
2022/08/23 08:52:47;;;;;;;;;;;27.60;80.40;;;;;;5001218;28;19925;-58
2022/08/23 08:55:37;;;;;;;;;;;27.50;80.30;;;;;;5016278;28;19929;-59
2022/08/23 08:58:05;;;;;;;;;;;27.60;80.40;;;;;;5015822;28;19929;-59
2022/08/23 09:00:35;;;;;;;;;;;27.60;80.50;;;;;;5001670;28;19933;-58
2022/08/23 09:03:12;;;;;;;;;;;27.60;81.00;;;;;;5016291;28;19926;-58
2022/08/23 09:05:48;;;;;;;;;;;27.60;80.40;;;;;;5004069;28;19929;-63
2022/08/23 09:08:18;;;;;;;;;;;27.60;80.40;;;;;;5034225;28;19949;-57
2022/08/23 09:10:45;;;;;;;;;;;27.60;80.40;;;;;;5022814;28;20405;-60
2022/08/23 09:13:31;;;;;;;;;;;27.60;80.40;;;;;;5017214;28;19930;-61
2022/08/23 09:16:20;;;;;;;;;;;27.60;80.40;;;;;;5006120;28;20298;-61
2022/08/23 09:18:47;;;;;;;;;;;27.60;80.40;;;;;;5011740;28;19929;-61
2022/08/23 09:21:16;;;;;;;;;;;27.60;80.40;;;;;;5008613;28;19925;-60
2022/08/23 09:23:45;;;;;;;;;;;27.60;80.40;;;;;;5020201;28;19929;-58
2022/08/23 09:26:22;;;;;;;;;;;27.60;80.40;;;;;;5011941;28;20413;-57
2022/08/23 09:28:51;;;;;;;;;;;27.70;80.50;;;;;;5020058;28;20612;-59
2022/08/23 09:31:35;;;;;;;;;;;27.60;80.40;;;;;;5017111;28;19936;-61
2022/08/23 09:34:03;;;;;;;;;;;27.60;80.40;;;;;;5005587;28;19930;-57
2022/08/23 09:36:48;;;;;;;;;;;27.60;80.40;;;;;;5018300;28;19925;-60
2022/08/23 09:39:27;;;;;;;;;;;27.60;80.50;;;;;;5011521;28;20385;-61
2022/08/23 09:42:01;;;;;;;;;;;27.60;80.50;;;;;;5010310;28;19929;-62
2022/08/23 09:44:31;;;;;;;;;;;27.60;80.50;;;;;;5013740;28;19937;-60
2022/08/23 09:47:07;;;;;;;;;;;27.60;80.50;;;;;;5016799;28;19933;-57
2022/08/23 09:49:40;;;;;;;;;;;27.70;80.50;;;;;;5007211;28;19925;-62
2022/08/23 09:52:09;;;;;;;;;;;27.70;80.50;;;;;;5015193;28;19940;-61
2022/08/23 09:54:42;;;;;;;;;;;27.70;80.50;;;;;;5007404;28;19929;-59
2022/08/23 09:57:21;;;;;;;;;;;27.70;80.50;;;;;;5010311;28;19937;-61
2022/08/23 09:59:50;;;;;;;;;;;27.70;80.50;;;;;;5010163;28;19940;-62
2022/08/23 10:02:33;;;;;;;;;;;27.60;80.40;;;;;;5011278;28;19932;-60
2022/08/23 10:05:10;;;;;;;;;;;27.60;80.40;;;;;;5004717;28;19933;-60
2022/08/23 10:07:42;;;;;;;;;;;27.70;80.50;;;;;;5011393;28;19936;-60
2022/08/23 10:10:12;;;;;;;;;;;27.70;80.50;;;;;;5010560;28;19929;-60
2022/08/23 10:12:40;;;;;;;;;;;27.70;80.50;;;;;;5019240;28;19956;-60
2022/08/23 10:15:09;;;;;;;;;;;27.70;80.50;;;;;;5012418;28;20416;-61
2022/08/23 10:17:51;;;;;;;;;;;27.60;80.40;;;;;;5015994;28;19932;-61
2022/08/23 10:20:25;;;;;;;;;;;27.70;80.50;;;;;;5042353;28;19932;-60
2022/08/23 10:22:57;;;;;;;;;;;27.70;80.50;;;;;;5006618;28;19944;-58
2022/08/23 10:25:38;;;;;;;;;;;27.60;80.40;;;;;;5016139;28;19929;-64
2022/08/23 10:31:09;;;;;;;;;;;27.70;80.50;;;;;;5010811;28;19937;-61
2022/08/23 10:33:52;;;;;;;;;;;27.70;80.50;;;;;;4991272;28;20309;-60
2022/08/23 10:36:27;;;;;;;;;;;27.60;80.40;;;;;;5013053;28;20415;-60
2022/08/23 10:38:56;;;;;;;;;;;27.60;80.40;;;;;;5017750;28;19929;-57
2022/08/23 10:41:39;;;;;;;;;;;27.70;80.50;;;;;;5016353;28;19932;-60
2022/08/23 10:44:07;;;;;;;;;;;27.70;80.50;;;;;;5000105;28;20465;-58
2022/08/23 10:46:38;;;;;;;;;;;27.70;80.50;;;;;;5014871;28;19932;-58
2022/08/23 10:49:10;;;;;;;;;;;27.70;80.50;;;;;;5000474;28;19929;-58
2022/08/23 10:51:43;;;;;;;;;;;27.70;80.50;;;;;;5003219;28;19936;-58
2022/08/23 10:54:45;;;;;;;;;;;27.70;80.50;;;;;;5009197;28;21777;-59
2022/08/23 10:57:16;;;;;;;;;;;27.70;80.50;;;;;;5014104;28;19932;-59
2022/08/23 10:59:44;;;;;;;;;;;27.70;80.40;;;;;;5024065;28;19929;-62
2022/08/23 11:02:27;;;;;;;;;;;27.70;80.40;;;;;;5017367;28;19925;-61
2022/08/23 11:05:20;;;;;;;;;;;27.70;80.50;;;;;;5004501;28;19929;-58
2022/08/23 11:07:56;;;;;;;;;;;27.70;80.50;;;;;;5009939;28;19932;-61
2022/08/23 11:10:29;;;;;;;;;;;27.70;80.40;;;;;;5009485;28;20436;-58
2022/08/23 11:13:23;;;;;;;;;;;27.70;80.50;;;;;;5021651;28;20388;-61
2022/08/23 11:15:54;;;;;;;;;;;27.70;80.40;;;;;;5010084;28;19933;-56
2022/08/23 11:18:39;;;;;;;;;;;27.70;80.50;;;;;;5012372;28;19925;-58
2022/08/23 11:21:16;;;;;;;;;;;27.70;80.40;;;;;;5006637;28;19930;-61
2022/08/23 11:24:14;;;;;;;;;;;27.70;80.50;;;;;;5021095;28;19926;-56
2022/08/23 11:26:43;;;;;;;;;;;27.70;80.50;;;;;;5017881;28;19937;-59
2022/08/23 11:29:23;;;;;;;;;;;27.70;80.40;;;;;;4993479;28;19930;-60
2022/08/23 11:32:22;;;;;;;;;;;27.70;80.40;;;;;;5008485;28;19937;-59
2022/08/23 11:34:56;;;;;;;;;;;27.70;80.40;;;;;;5011801;28;19929;-61
2022/08/23 11:37:27;;;;;;;;;;;27.70;80.40;;;;;;5015004;28;19926;-60
2022/08/23 11:39:58;;;;;;;;;;;27.80;80.50;;;;;;5011399;28;19929;-60
2022/08/23 11:42:37;;;;;;;;;;;27.70;80.30;;;;;;5005063;28;19929;-57
2022/08/23 11:45:19;;;;;;;;;;;27.70;80.30;;;;;;5021228;28;19930;-55
2022/08/23 11:47:52;;;;;;;;;;;27.70;80.30;;;;;;5007009;28;19932;-60
2022/08/23 11:50:24;;;;;;;;;;;27.80;80.40;;;;;;5004522;28;20289;-58
2022/08/23 11:53:06;;;;;;;;;;;27.80;80.40;;;;;;5014589;28;19929;-62
2022/08/23 11:55:45;;;;;;;;;;;27.80;80.30;;;;;;5011122;28;20522;-61
2022/08/23 11:58:15;;;;;;;;;;;27.70;80.20;;;;;;5014450;28;19936;-62
2022/08/23 12:00:45;;;;;;;;;;;27.80;80.30;;;;;;5011656;28;19929;-60
2022/08/23 12:03:23;;;;;;;;;;;27.80;80.30;;;;;;5012435;28;19936;-56
2022/08/23 12:05:50;;;;;;;;;;;27.80;80.30;;;;;;5012715;28;19940;-61
2022/08/23 12:08:26;;;;;;;;;;;27.80;80.30;;;;;;5008275;28;19929;-56
2022/08/23 12:10:58;;;;;;;;;;;27.80;80.30;;;;;;5021017;28;19941;-58
2022/08/23 12:13:31;;;;;;;;;;;27.80;80.30;;;;;;5007815;28;19940;-62
2022/08/23 12:16:04;;;;;;;;;;;27.80;80.30;;;;;;5001744;28;19929;-57
2022/08/23 12:18:32;;;;;;;;;;;27.80;80.30;;;;;;5011140;28;19936;-59
2022/08/23 12:21:01;;;;;;;;;;;27.80;80.20;;;;;;5008621;28;20308;-58
2022/08/23 12:23:28;;;;;;;;;;;27.80;80.30;;;;;;5009409;28;20308;-58
2022/08/23 12:26:02;;;;;;;;;;;27.80;80.20;;;;;;5015003;28;19932;-59
2022/08/23 12:28:41;;;;;;;;;;;27.80;80.20;;;;;;5017540;28;19926;-62
2022/08/23 12:31:14;;;;;;;;;;;27.80;80.20;;;;;;5009612;28;19926;-60
2022/08/23 12:33:51;;;;;;;;;;;27.90;80.20;;;;;;5018582;28;19933;-62
2022/08/23 12:36:37;;;;;;;;;;;27.90;80.20;;;;;;5012306;28;19937;-57
2022/08/23 12:39:06;;;;;;;;;;;27.90;80.20;;;;;;5005793;28;19948;-62
2022/08/23 12:41:58;;;;;;;;;;;27.80;80.10;;;;;;5022950;28;19932;-59
2022/08/23 12:44:26;;;;;;;;;;;27.80;80.10;;;;;;5007171;28;19929;-60
2022/08/23 12:46:54;;;;;;;;;;;27.80;80.10;;;;;;5004609;28;19951;-57
2022/08/23 12:49:26;;;;;;;;;;;27.90;80.10;;;;;;5008790;28;19941;-62
2022/08/23 12:51:55;;;;;;;;;;;27.90;80.10;;;;;;5001625;28;19984;-56
2022/08/23 12:54:30;;;;;;;;;;;27.90;80.00;;;;;;5023639;28;19929;-57
2022/08/23 12:56:57;;;;;;;;;;;27.90;80.00;;;;;;5003201;28;19929;-60
2022/08/23 12:59:28;;;;;;;;;;;27.90;80.00;;;;;;5009340;28;19933;-60
2022/08/23 13:01:55;;;;;;;;;;;27.90;79.90;;;;;;5010117;28;19936;-61
2022/08/23 13:04:23;;;;;;;;;;;27.90;80.50;;;;;;5022691;28;20328;-61
2022/08/23 13:06:53;;;;;;;;;;;27.90;79.90;;;;;;5006867;28;19934;-60
2022/08/23 13:09:23;;;;;;;;;;;28.00;79.90;;;;;;5013787;28;20133;-61
2022/08/23 13:11:51;;;;;;;;;;;28.00;79.80;;;;;;5016066;28;19926;-59
2022/08/23 13:14:22;;;;;;;;;;;28.00;79.80;;;;;;5009106;28;20397;-61
2022/08/23 13:16:50;;;;;;;;;;;28.00;79.80;;;;;;5016920;28;19933;-60
2022/08/23 13:19:19;;;;;;;;;;;28.10;79.80;;;;;;5027008;28;20389;-56
2022/08/23 13:21:46;;;;;;;;;;;28.10;79.70;;;;;;5020457;28;19936;-58
2022/08/23 13:24:46;;;;;;;;;;;28.10;79.70;;;;;;5009713;28;19934;-61
2022/08/23 13:27:15;;;;;;;;;;;28.10;79.70;;;;;;5028365;28;20109;-58
2022/08/23 13:29:53;;;;;;;;;;;28.20;79.70;;;;;;5015958;28;20285;-62
2022/08/23 13:32:25;;;;;;;;;;;28.20;79.60;;;;;;5012115;28;20207;-63
2022/08/23 13:34:55;;;;;;;;;;;28.20;79.60;;;;;;5010681;28;19948;-62
2022/08/23 13:37:25;;;;;;;;;;;28.20;79.60;;;;;;5022310;28;19940;-64
2022/08/23 13:39:54;;;;;;;;;;;28.20;79.60;;;;;;5013354;28;19936;-61
2022/08/23 13:42:48;;;;;;;;;;;28.20;79.70;;;;;;5011663;28;20464;-58
2022/08/23 13:45:23;;;;;;;;;;;28.20;79.70;;;;;;5007133;28;19936;-60
2022/08/23 13:47:54;;;;;;;;;;;28.20;79.60;;;;;;5018667;28;19948;-59
2022/08/23 13:50:32;;;;;;;;;;;28.30;79.60;;;;;;5010805;28;19940;-61
2022/08/23 13:53:01;;;;;;;;;;;28.30;79.50;;;;;;5024615;28;19933;-61
2022/08/23 13:55:43;;;;;;;;;;;28.40;79.50;;;;;;5011767;28;19940;-62
2022/08/23 13:58:11;;;;;;;;;;;28.40;79.40;;;;;;5019602;28;19937;-59
2022/08/23 14:00:39;;;;;;;;;;;28.50;79.30;;;;;;5013668;28;19937;-60
2022/08/23 14:03:11;;;;;;;;;;;28.50;79.20;;;;;;5023879;28;19925;-60
2022/08/23 14:05:38;;;;;;;;;;;28.60;79.20;;;;;;5019639;28;19925;-61
2022/08/23 14:08:06;;;;;;;;;;;28.60;79.10;;;;;;5021723;28;20416;-57
2022/08/23 14:10:33;;;;;;;;;;;28.60;79.00;;;;;;5026837;28;19932;-60
2022/08/23 14:13:00;;;;;;;;;;;28.70;79.00;;;;;;5032167;28;19926;-61
2022/08/23 14:15:28;;;;;;;;;;;28.70;78.90;;;;;;5023102;28;19940;-61
2022/08/23 14:18:15;;;;;;;;;;;28.80;78.90;;;;;;5013960;28;19948;-61
2022/08/23 14:20:42;;;;;;;;;;;28.80;78.80;;;;;;5023396;28;19936;-62
2022/08/23 14:23:12;;;;;;;;;;;28.80;78.70;;;;;;5023627;28;19929;-58
2022/08/23 14:25:39;;;;;;;;;;;28.80;78.60;;;;;;5017088;28;19940;-59
2022/08/23 14:28:06;;;;;;;;;;;28.90;78.70;;;;;;5015715;28;19932;-61
2022/08/23 14:30:34;;;;;;;;;;;29.00;78.60;;;;;;5013664;28;20341;-60
2022/08/23 14:33:02;;;;;;;;;;;28.90;78.50;;;;;;5021478;28;19929;-61
2022/08/23 14:35:30;;;;;;;;;;;29.00;78.50;;;;;;5013748;28;19928;-61
2022/08/23 14:37:57;;;;;;;;;;;29.00;78.40;;;;;;5011924;28;20408;-61
2022/08/23 14:40:33;;;;;;;;;;;29.10;78.30;;;;;;5014700;28;20394;-60
2022/08/23 14:43:01;;;;;;;;;;;29.10;78.80;;;;;;5014673;28;19929;-61
2022/08/23 14:45:28;;;;;;;;;;;29.10;78.10;;;;;;5019354;28;19929;-66
2022/08/23 14:47:55;;;;;;;;;;;29.20;78.10;;;;;;5020907;28;20317;-61
2022/08/23 14:50:23;;;;;;;;;;;29.20;78.10;;;;;;5007184;28;19945;-61
2022/08/23 14:52:50;;;;;;;;;;;29.10;78.20;;;;;;5017546;28;20290;-59
2022/08/23 14:55:17;;;;;;;;;;;29.10;78.30;;;;;;5014848;28;19936;-60
2022/08/23 14:57:50;;;;;;;;;;;29.10;78.20;;;;;;5016301;28;19926;-60
2022/08/23 15:00:17;;;;;;;;;;;29.10;78.40;;;;;;5016520;28;19936;-58
2022/08/23 15:02:45;;;;;;;;;;;29.00;78.50;;;;;;5010119;28;19925;-60